Aerbrava en el facebook Aerbrava en el twitter Google+ Instagram Aerbrava en el youtube tumblr flikr pinterest
aerbrava en catal&agà Aerbrava in English
Escuela de Pilotos
Teléfono 972234126 972 23 41 26
 
aerbrava en català Aerbrava in English
Aerbrava - Meteorología

Información meteorológica aeronáutica

 

En este apartado aparece la información meteorológica aeronáutica que es utilizada en las prácticas de los alumnos de la Escuela de Pilotos de nuestro centro durante su formación, por lo que puede no ser actual y se debería utilizar por su propia cuenta y riesgo. AERBRAVA no se hace responsable de su uso.

 

TIEMPO ACTUAL

Satélite Meteorológico

sat24.com

Servei Meteorològic de Catalunya

 

LEGE 221030Z 06003KT CAVOK 07/M02 Q1006
LEGE 221000Z 07002KT CAVOK 06/M01 Q1006
LEGE 220930Z 04002KT CAVOK 05/M02 Q1006
LEGE 220900Z VRB02KT CAVOK 04/M01 Q1006
LEGE 220830Z VRB01KT CAVOK 02/M00 Q1006
LEGE 220800Z 00000KT CAVOK 01/M01 Q1006
LEGE 220730Z 00000KT CAVOK M02/M02 Q1006
LEGE 220700Z 00000KT CAVOK M03/M03 Q1006
TAF LEGE 220500Z 2206/2306 34005KT 9999 FEW030 TX11/2214Z TN00/2206Z
TEMPO 2210/2218 10010KT
PROB30
TEMPO 2214/2224 4000 SHRA BKN020 FEW025TCU

Aviation Weather

 
Aerbrava en el facebook Aerbrava en el twitter Google+ Instagram Aerbrava en el youtube tumblr flikr pinterest

¡CSS Vàlid!